Time;durP1;ratioP1;P1;durP2;ratioP2;P2;SDS_P1;SDS_P2;PMS_P1;PMS_P2;Temp;Humidity;BMP_temperature;BMP_pressure;BME280_temperature;BME280_humidity;BME280_pressure;Samples;Min_cycle;Max_cycle;Signal;HPM_P1;HPM_P2
2021/03/18 00:00:00;;;;;;;13.90;1.93;;;7.60;99.90;;;;;;4085609;29;20282;-92
2021/03/18 00:02:01;;;;;;;13.87;2.17;;;7.60;99.90;;;;;;4101634;29;20534;-92
2021/03/18 00:04:03;;;;;;;10.70;2.10;;;7.50;99.90;;;;;;4085319;29;20247;-93
2021/03/18 00:06:04;;;;;;;19.23;2.20;;;7.80;99.90;;;;;;4101187;29;20261;-91
2021/03/18 00:08:05;;;;;;;14.17;1.67;;;8.00;99.90;;;;;;4085322;29;20262;-93
2021/03/18 00:10:06;;;;;;;23.70;2.10;;;8.10;99.90;;;;;;4116915;28;20198;-92
2021/03/18 00:12:07;;;;;;;13.97;2.20;;;7.90;99.90;;;;;;4085596;29;20187;-92
2021/03/18 00:14:13;;;;;;;12.13;1.83;;;7.70;99.90;;;;;;4117204;28;20174;-93
2021/03/18 00:16:16;;;;;;;16.10;2.20;;;7.80;99.90;;;;;;4085418;29;20597;-92
2021/03/18 00:18:19;;;;;;;17.10;2.10;;;7.50;99.90;;;;;;4085559;29;20210;-92
2021/03/18 00:20:19;;;;;;;24.77;2.43;;;7.40;99.90;;;;;;4085392;29;20192;-92
2021/03/18 00:22:22;;;;;;;16.33;1.97;;;7.30;99.90;;;;;;4085251;29;20239;-93
2021/03/18 00:24:22;;;;;;;18.00;2.33;;;7.50;99.90;;;;;;4085188;29;20222;-93
2021/03/18 00:26:28;;;;;;;19.30;2.23;;;7.40;99.90;;;;;;4116655;28;20265;-93
2021/03/18 00:28:30;;;;;;;16.33;2.20;;;7.50;99.90;;;;;;4085027;29;20175;-92
2021/03/18 00:30:31;;;;;;;20.23;2.17;;;7.50;99.90;;;;;;4084975;29;20282;-92
2021/03/18 00:32:33;;;;;;;13.00;1.73;;;7.50;99.90;;;;;;4085300;29;20620;-93
2021/03/18 00:34:34;;;;;;;26.70;2.80;;;7.20;99.90;;;;;;4084882;29;20190;-93
2021/03/18 00:36:35;;;;;;;12.73;2.27;;;7.30;99.90;;;;;;4116627;28;20186;-93
2021/03/18 00:38:35;;;;;;;16.03;2.30;;;7.10;99.90;;;;;;4084762;29;20171;-93
2021/03/18 00:40:43;;;;;;;24.00;2.33;;;6.80;99.90;;;;;;4100059;28;20198;-92
2021/03/18 00:42:59;;;;;;;18.17;2.20;;;6.70;99.90;;;;;;4084713;29;20230;-94
2021/03/18 00:44:59;;;;;;;12.90;1.93;;;6.80;99.90;;;;;;4084679;29;20179;-93
2021/03/18 00:47:00;;;;;;;16.00;2.53;;;6.80;99.90;;;;;;4084758;29;20174;-92
2021/03/18 00:49:03;;;;;;;16.70;2.17;;;7.00;99.90;;;;;;4100696;29;20679;-92
2021/03/18 00:51:07;;;;;;;17.07;2.20;;;6.90;99.90;;;;;;4084668;29;20619;-93
2021/03/18 00:53:11;;;;;;;20.93;2.40;;;6.90;99.90;;;;;;4084977;29;20187;-93
2021/03/18 00:55:13;;;;;;;18.30;2.17;;;6.60;99.90;;;;;;4084739;29;20172;-92
2021/03/18 00:57:14;;;;;;;18.53;2.30;;;6.60;99.90;;;;;;4084730;29;20167;-92
2021/03/18 00:59:14;;;;;;;20.33;1.93;;;6.50;99.90;;;;;;4100542;29;20208;-93
2021/03/18 01:01:20;;;;;;;16.97;1.90;;;6.40;99.90;;;;;;4084698;29;20163;-92
2021/03/18 01:03:22;;;;;;;13.80;2.00;;;6.70;99.90;;;;;;4100437;29;20247;-92
2021/03/18 01:05:31;;;;;;;21.40;2.50;;;7.10;99.90;;;;;;4084769;29;20195;-92
2021/03/18 01:07:31;;;;;;;10.10;1.87;;;7.00;99.90;;;;;;4084737;29;20249;-93
2021/03/18 01:09:32;;;;;;;17.50;2.80;;;6.80;99.90;;;;;;4100445;29;20282;-92
2021/03/18 01:11:38;;;;;;;16.20;2.83;;;6.60;99.90;;;;;;4085400;29;20719;-93
2021/03/18 01:13:42;;;;;;;22.40;2.33;;;6.60;99.90;;;;;;4084675;29;20184;-93
2021/03/18 01:15:44;;;;;;;17.87;2.73;;;6.40;99.90;;;;;;4084533;29;20172;-92
2021/03/18 01:17:45;;;;;;;15.53;2.77;;;6.70;99.90;;;;;;4084777;29;20215;-92
2021/03/18 01:19:45;;;;;;;15.70;2.27;;;6.90;99.90;;;;;;4100435;29;20582;-92
2021/03/18 01:21:49;;;;;;;18.63;2.47;;;6.40;99.90;;;;;;4084482;29;20689;-91
2021/03/18 01:23:50;;;;;;;15.13;2.43;;;6.50;99.90;;;;;;4084479;29;20222;-91
2021/03/18 01:25:51;;;;;;;12.17;2.30;;;6.40;99.90;;;;;;4116504;28;20178;-91
2021/03/18 01:27:51;;;;;;;16.67;2.13;;;6.40;99.90;;;;;;4084482;29;20172;-94
2021/03/18 01:29:52;;;;;;;16.43;2.10;;;6.30;99.90;;;;;;4116310;28;20266;-92
2021/03/18 01:31:53;;;;;;;17.40;2.40;;;6.20;99.90;;;;;;4084417;29;20179;-92
2021/03/18 01:33:54;;;;;;;17.90;2.80;;;6.20;99.90;;;;;;4116275;28;20619;-92
2021/03/18 01:35:54;;;;;;;11.43;2.17;;;6.30;99.90;;;;;;4084485;29;20183;-93
2021/03/18 01:37:55;;;;;;;16.40;2.57;;;6.30;99.90;;;;;;4116050;28;20231;-91
2021/03/18 01:39:56;;;;;;;16.10;2.27;;;6.30;99.90;;;;;;4084377;29;20207;-91
2021/03/18 01:41:57;;;;;;;17.57;2.40;;;6.30;99.90;;;;;;4084336;29;20168;-91
2021/03/18 01:43:58;;;;;;;16.43;2.07;;;6.30;99.90;;;;;;4100049;29;20225;-91
2021/03/18 01:45:59;;;;;;;8.57;1.77;;;6.30;99.90;;;;;;4084426;29;20183;-90
2021/03/18 01:48:00;;;;;;;13.73;2.20;;;6.30;99.90;;;;;;4100056;29;20227;-92
2021/03/18 01:50:01;;;;;;;14.87;2.10;;;6.30;99.90;;;;;;4085145;29;20260;-91
2021/03/18 01:52:03;;;;;;;9.93;1.80;;;6.40;99.90;;;;;;4084708;29;20192;-91
2021/03/18 01:54:04;;;;;;;11.80;1.90;;;6.40;99.90;;;;;;4087254;29;20164;-92
2021/03/18 01:56:06;;;;;;;9.97;1.57;;;6.30;99.90;;;;;;4103166;29;20207;-92
2021/03/18 01:58:09;;;;;;;12.03;1.57;;;6.30;99.90;;;;;;4087252;29;20159;-91
2021/03/18 02:00:11;;;;;;;9.23;1.87;;;6.30;99.90;;;;;;4087247;29;20200;-91
2021/03/18 02:02:13;;;;;;;13.50;1.57;;;6.30;99.90;;;;;;4103286;28;20175;-91
2021/03/18 02:04:14;;;;;;;11.87;1.93;;;6.40;99.90;;;;;;4087018;29;20302;-91
2021/03/18 02:06:15;;;;;;;11.67;1.53;;;6.50;99.90;;;;;;4087170;29;20171;-93
2021/03/18 02:08:16;;;;;;;13.20;1.83;;;6.40;99.90;;;;;;4103175;29;20188;-93
2021/03/18 02:10:17;;;;;;;10.83;1.97;;;6.50;99.90;;;;;;4102845;29;20222;-92
2021/03/18 02:12:18;;;;;;;14.23;1.50;;;6.50;99.90;;;;;;4087133;29;20292;-93
2021/03/18 02:14:18;;;;;;;15.70;1.80;;;6.40;99.90;;;;;;4118750;28;20237;-91
2021/03/18 02:16:20;;;;;;;15.00;1.87;;;6.50;99.90;;;;;;4087067;29;20179;-92
2021/03/18 02:18:50;;;;;;;10.93;1.80;;;6.60;99.90;;;;;;4087129;29;20271;-91
2021/03/18 02:21:09;;;;;;;10.10;1.67;;;6.70;99.90;;;;;;4086787;29;20206;-91
2021/03/18 02:23:31;;;;;;;11.87;1.47;;;6.60;99.90;;;;;;4086859;29;20223;-92
2021/03/18 02:25:39;;;;;;;12.30;1.50;;;6.50;99.90;;;;;;4086825;29;20558;-93
2021/03/18 02:27:54;;;;;;;13.17;2.30;;;6.50;99.90;;;;;;4086875;29;20214;-92
2021/03/18 02:30:16;;;;;;;15.90;1.73;;;6.50;99.90;;;;;;4086688;29;20270;-91
2021/03/18 02:32:22;;;;;;;11.97;1.77;;;6.40;99.90;;;;;;4102511;29;20186;-92
2021/03/18 02:34:57;;;;;;;12.27;1.80;;;6.40;99.90;;;;;;4086637;29;20640;-93
2021/03/18 02:37:04;;;;;;;8.80;1.57;;;6.30;99.90;;;;;;4023804;29;20237;-92
2021/03/18 02:39:09;;;;;;;14.27;1.80;;;6.30;99.90;;;;;;4086625;29;20182;-91
2021/03/18 02:41:21;;;;;;;13.83;1.37;;;6.20;99.90;;;;;;4086528;29;20199;-92
2021/03/18 02:43:23;;;;;;;11.43;2.20;;;6.20;99.90;;;;;;4086769;29;20281;-91
2021/03/18 02:45:28;;;;;;;8.93;1.90;;;6.10;99.90;;;;;;4102278;29;20174;-92
2021/03/18 02:47:32;;;;;;;10.97;2.13;;;6.20;99.90;;;;;;4086514;29;20580;-92
2021/03/18 02:49:36;;;;;;;10.53;1.90;;;6.20;99.90;;;;;;4086473;29;20207;-90
2021/03/18 02:51:41;;;;;;;12.50;2.40;;;6.20;99.90;;;;;;4086409;29;20222;-92
2021/03/18 02:53:43;;;;;;;12.87;2.10;;;6.20;99.90;;;;;;4102458;29;20265;-93
2021/03/18 02:55:47;;;;;;;11.10;2.30;;;6.00;99.90;;;;;;4086384;29;20223;-91
2021/03/18 02:57:49;;;;;;;6.97;2.10;;;5.90;99.90;;;;;;4086400;29;20164;-91
2021/03/18 02:59:51;;;;;;;10.17;2.10;;;5.90;99.90;;;;;;4086319;29;20191;-91
2021/03/18 03:01:53;;;;;;;15.47;2.53;;;5.80;99.90;;;;;;4086526;29;20666;-92
2021/03/18 03:03:55;;;;;;;7.80;2.13;;;5.80;99.90;;;;;;4085443;29;20290;-91
2021/03/18 03:05:57;;;;;;;9.70;2.10;;;5.80;99.90;;;;;;4086436;29;20231;-91
2021/03/18 03:07:59;;;;;;;10.23;2.00;;;5.70;99.90;;;;;;4086315;29;20184;-91
2021/03/18 03:10:01;;;;;;;10.93;2.27;;;5.60;99.90;;;;;;4086301;29;20603;-93
2021/03/18 03:12:04;;;;;;;14.53;2.27;;;5.60;99.90;;;;;;4086290;29;20176;-92
2021/03/18 03:14:07;;;;;;;11.90;2.03;;;5.50;99.90;;;;;;4086148;29;20203;-92
2021/03/18 03:16:12;;;;;;;6.37;1.73;;;5.60;99.90;;;;;;4086217;29;20175;-92
2021/03/18 03:18:13;;;;;;;8.07;2.00;;;5.70;99.90;;;;;;4086438;29;20320;-92
2021/03/18 03:20:15;;;;;;;6.33;1.90;;;5.70;99.90;;;;;;4086223;29;20207;-91
2021/03/18 03:22:16;;;;;;;6.47;1.77;;;5.70;99.90;;;;;;4086013;29;20211;-91
2021/03/18 03:24:18;;;;;;;8.03;1.80;;;5.70;99.90;;;;;;4085862;29;20223;-91
2021/03/18 03:26:24;;;;;;;7.97;1.87;;;5.90;99.90;;;;;;4101703;29;20570;-91
2021/03/18 03:28:26;;;;;;;6.93;1.83;;;6.00;99.90;;;;;;4102004;29;20171;-92
2021/03/18 03:30:27;;;;;;;13.37;2.53;;;6.10;99.90;;;;;;4102016;29;20290;-92
2021/03/18 03:32:27;;;;;;;7.93;2.00;;;6.10;99.90;;;;;;4086002;29;20179;-92
2021/03/18 03:34:28;;;;;;;8.80;2.43;;;6.30;99.90;;;;;;4101812;29;20170;-93
2021/03/18 03:36:29;;;;;;;7.60;2.37;;;6.20;99.90;;;;;;4086049;29;20178;-92
2021/03/18 03:38:30;;;;;;;10.67;2.03;;;5.90;99.90;;;;;;4085884;29;20175;-92
2021/03/18 03:40:31;;;;;;;7.97;2.20;;;5.60;99.90;;;;;;4117709;28;20257;-92
2021/03/18 03:42:32;;;;;;;7.30;1.90;;;5.50;99.90;;;;;;4085909;29;20539;-93
2021/03/18 03:44:33;;;;;;;10.60;2.10;;;5.30;99.90;;;;;;4117565;28;20210;-92
2021/03/18 03:46:34;;;;;;;6.90;2.30;;;5.30;99.90;;;;;;4085705;29;20176;-92
2021/03/18 03:48:35;;;;;;;11.97;2.20;;;5.30;99.90;;;;;;4085483;29;20318;-93
2021/03/18 03:50:37;;;;;;;12.53;2.70;;;5.40;99.90;;;;;;4117272;28;20697;-93
2021/03/18 03:52:43;;;;;;;13.40;2.17;;;5.30;99.90;;;;;;4085579;29;20187;-93
2021/03/18 03:54:48;;;;;;;13.93;2.70;;;5.40;99.90;;;;;;4085438;29;20559;-92
2021/03/18 03:56:58;;;;;;;9.03;2.37;;;5.50;99.90;;;;;;4085555;29;20202;-92
2021/03/18 03:59:04;;;;;;;7.90;1.93;;;5.60;99.90;;;;;;4085460;29;20248;-92
2021/03/18 04:01:16;;;;;;;9.63;2.03;;;5.80;99.90;;;;;;4085329;29;20579;-93
2021/03/18 04:03:17;;;;;;;9.50;2.47;;;5.90;99.90;;;;;;4101179;29;20301;-92
2021/03/18 04:05:19;;;;;;;9.00;2.47;;;6.00;99.90;;;;;;4101134;29;20616;-92
2021/03/18 04:07:32;;;;;;;7.87;2.20;;;5.80;99.90;;;;;;4085379;29;20171;-92
2021/03/18 04:09:34;;;;;;;10.57;2.93;;;5.40;99.90;;;;;;4085382;29;20198;-92
2021/03/18 04:11:39;;;;;;;9.80;2.33;;;5.40;99.90;;;;;;4101034;29;20179;-93
2021/03/18 04:13:41;;;;;;;11.77;2.80;;;5.40;99.90;;;;;;4085471;29;20729;-92
2021/03/18 04:15:44;;;;;;;14.53;3.13;;;5.50;99.90;;;;;;4085103;29;20171;-94
2021/03/18 04:17:50;;;;;;;6.33;2.43;;;5.40;99.90;;;;;;4085503;29;20171;-92
2021/03/18 04:19:55;;;;;;;6.33;3.03;;;5.60;99.90;;;;;;4085107;29;20199;-93
2021/03/18 04:21:57;;;;;;;9.60;2.67;;;5.80;99.90;;;;;;4085142;29;20187;-93
2021/03/18 04:24:01;;;;;;;18.13;3.20;;;5.90;99.90;;;;;;4085012;29;20214;-92
2021/03/18 04:26:02;;;;;;;12.17;3.20;;;6.00;99.90;;;;;;4085195;29;20182;-93
2021/03/18 04:28:04;;;;;;;9.40;2.90;;;6.10;99.90;;;;;;4084932;29;20164;-92
2021/03/18 04:30:10;;;;;;;13.90;2.97;;;6.00;99.90;;;;;;4100789;29;20587;-93
2021/03/18 04:32:13;;;;;;;7.80;2.93;;;5.90;99.90;;;;;;4085033;29;20250;-92
2021/03/18 04:34:17;;;;;;;9.73;3.67;;;6.10;99.90;;;;;;4085102;29;20216;-93
2021/03/18 04:36:18;;;;;;;5.20;2.70;;;6.40;99.90;;;;;;4085120;29;20229;-92
2021/03/18 04:38:19;;;;;;;7.23;2.93;;;6.40;99.90;;;;;;4116618;28;20170;-92
2021/03/18 04:40:21;;;;;;;6.50;2.40;;;6.40;99.90;;;;;;4100653;29;20290;-93
2021/03/18 04:42:22;;;;;;;13.07;3.40;;;6.40;99.90;;;;;;4084803;29;20728;-93
2021/03/18 04:44:23;;;;;;;11.93;2.77;;;6.50;99.90;;;;;;4100614;29;20202;-93
2021/03/18 04:46:25;;;;;;;6.53;2.70;;;6.50;99.90;;;;;;4084933;29;20186;-92
2021/03/18 04:48:26;;;;;;;12.83;3.20;;;6.60;99.90;;;;;;4084685;29;20310;-93
2021/03/18 04:50:28;;;;;;;9.43;2.80;;;6.60;99.90;;;;;;4084725;29;20282;-92
2021/03/18 04:52:29;;;;;;;11.13;3.00;;;6.50;99.90;;;;;;4084927;29;20184;-93
2021/03/18 04:54:30;;;;;;;8.07;2.80;;;6.40;99.90;;;;;;4084678;29;20670;-92
2021/03/18 04:56:31;;;;;;;9.77;2.77;;;6.20;99.90;;;;;;4100605;29;20187;-92
2021/03/18 04:58:35;;;;;;;10.77;2.97;;;6.30;99.90;;;;;;4084573;29;20207;-92
2021/03/18 05:00:37;;;;;;;5.93;2.60;;;6.40;99.90;;;;;;4084746;29;20632;-92
2021/03/18 05:02:40;;;;;;;9.50;3.00;;;6.40;99.90;;;;;;4084692;29;20267;-92
2021/03/18 05:04:45;;;;;;;13.23;3.03;;;6.20;99.90;;;;;;4085027;29;20179;-94
2021/03/18 05:06:51;;;;;;;10.67;2.63;;;6.20;99.90;;;;;;4100662;29;20182;-91
2021/03/18 05:08:53;;;;;;;10.50;2.57;;;6.10;99.90;;;;;;4084688;29;20187;-91
2021/03/18 05:10:55;;;;;;;9.77;3.00;;;5.90;99.90;;;;;;4084614;29;20191;-91
2021/03/18 05:12:59;;;;;;;14.40;3.10;;;5.80;99.90;;;;;;4084713;29;20183;-91
2021/03/18 05:15:01;;;;;;;9.50;2.80;;;6.00;99.90;;;;;;4084570;29;20270;-91
2021/03/18 05:17:02;;;;;;;9.77;2.57;;;6.00;99.90;;;;;;4084438;29;20271;-91
2021/03/18 05:19:12;;;;;;;12.07;3.07;;;6.00;99.90;;;;;;4084599;29;20176;-90
2021/03/18 05:21:13;;;;;;;14.67;3.43;;;6.10;99.90;;;;;;4084434;29;20258;-92
2021/03/18 05:25:27;;;;;;;24.23;3.43;;;5.70;99.90;;;;;;4148779;28;20211;-92
2021/03/18 05:27:28;;;;;;;10.00;3.03;;;5.80;99.90;;;;;;4117535;28;20182;-92
2021/03/18 05:29:29;;;;;;;16.60;3.77;;;5.90;99.90;;;;;;4133162;28;20709;-92
2021/03/18 05:31:30;;;;;;;10.03;2.53;;;5.80;99.90;;;;;;4103704;29;20215;-92
2021/03/18 05:33:31;;;;;;;11.17;2.77;;;5.40;99.90;;;;;;4105292;29;20230;-92
2021/03/18 05:35:33;;;;;;;10.83;3.00;;;5.30;99.90;;;;;;4119783;28;20309;-91
2021/03/18 05:37:34;;;;;;;13.17;2.80;;;5.20;99.90;;;;;;4104082;29;20171;-91
2021/03/18 05:39:35;;;;;;;13.40;2.97;;;5.30;99.90;;;;;;4103741;28;20242;-92
2021/03/18 05:41:36;;;;;;;10.57;3.07;;;5.30;99.90;;;;;;4103412;29;20183;-92
2021/03/18 05:43:37;;;;;;;13.00;3.00;;;5.50;99.90;;;;;;4103260;29;20198;-92
2021/03/18 05:45:38;;;;;;;20.30;3.47;;;5.80;99.90;;;;;;4103969;29;20187;-92
2021/03/18 05:47:39;;;;;;;10.33;3.03;;;5.90;99.90;;;;;;4103258;29;20257;-91
2021/03/18 05:49:43;;;;;;;11.33;3.50;;;5.80;99.90;;;;;;4103283;29;20209;-91
2021/03/18 05:51:48;;;;;;;10.37;3.00;;;5.90;99.90;;;;;;4103244;29;20167;-92
2021/03/18 05:53:49;;;;;;;14.63;3.40;;;5.70;99.90;;;;;;4104283;28;20178;-92
2021/03/18 05:55:52;;;;;;;10.87;2.90;;;5.70;99.90;;;;;;4105324;29;20187;-93
2021/03/18 05:57:54;;;;;;;13.07;3.03;;;6.00;99.90;;;;;;4104270;29;20262;-92
2021/03/18 05:59:56;;;;;;;11.40;2.93;;;6.10;99.90;;;;;;4103561;28;20195;-92
2021/03/18 06:01:57;;;;;;;12.27;3.33;;;6.20;99.90;;;;;;4102965;29;20550;-91
2021/03/18 06:03:58;;;;;;;11.47;3.33;;;6.30;99.90;;;;;;4103519;29;20234;-92
2021/03/18 06:06:01;;;;;;;10.40;3.37;;;6.40;99.90;;;;;;4103010;29;20181;-91
2021/03/18 06:08:02;;;;;;;11.90;3.27;;;6.40;99.90;;;;;;4104572;29;20250;-91
2021/03/18 06:10:05;;;;;;;8.63;3.30;;;6.50;99.90;;;;;;4103675;28;20191;-92
2021/03/18 06:12:06;;;;;;;10.10;3.47;;;6.60;99.90;;;;;;4104538;29;20172;-92
2021/03/18 06:14:07;;;;;;;9.40;3.30;;;6.60;99.90;;;;;;4103209;29;20163;-91
2021/03/18 06:16:08;;;;;;;14.37;3.30;;;6.60;99.90;;;;;;4103337;29;20631;-91
2021/03/18 06:18:11;;;;;;;11.27;3.40;;;6.50;99.90;;;;;;4104227;29;20523;-92
2021/03/18 06:20:15;;;;;;;11.13;3.77;;;6.40;99.90;;;;;;4103594;28;20233;-92
2021/03/18 06:22:51;;;;;;;11.83;3.43;;;6.40;99.90;;;;;;4102943;29;20638;-92
2021/03/18 06:24:51;;;;;;;11.83;3.90;;;6.50;99.90;;;;;;4114231;28;20293;-91
2021/03/18 06:26:53;;;;;;;10.13;3.43;;;6.70;99.90;;;;;;4119504;28;20186;-90
2021/03/18 06:28:53;;;;;;;8.63;3.80;;;6.70;99.90;;;;;;4118860;28;20273;-92
2021/03/18 06:31:06;;;;;;;10.23;4.17;;;6.60;99.90;;;;;;4118540;28;20261;-92
2021/03/18 06:33:21;;;;;;;11.90;3.47;;;6.60;99.90;;;;;;4118910;28;20182;-91
2021/03/18 06:35:29;;;;;;;10.17;3.97;;;6.80;99.90;;;;;;4119019;28;20173;-91
2021/03/18 06:37:41;;;;;;;11.07;3.87;;;6.80;99.90;;;;;;4134592;28;20220;-92
2021/03/18 06:39:42;;;;;;;13.53;4.20;;;6.90;99.90;;;;;;4133426;28;20284;-92
2021/03/18 06:41:56;;;;;;;13.43;4.00;;;6.80;99.90;;;;;;4118361;28;20181;-92
2021/03/18 06:43:57;;;;;;;11.40;4.33;;;6.90;99.90;;;;;;4118834;28;20624;-92
2021/03/18 06:46:13;;;;;;;12.20;4.23;;;6.80;99.90;;;;;;4118430;28;20182;-91
2021/03/18 06:48:15;;;;;;;12.87;4.67;;;6.80;99.90;;;;;;4134809;28;20189;-92
2021/03/18 06:50:21;;;;;;;11.87;4.83;;;6.80;99.90;;;;;;4119459;28;20260;-94
2021/03/18 06:52:22;;;;;;;14.67;4.37;;;6.70;99.90;;;;;;4121654;28;20178;-92
2021/03/18 06:54:23;;;;;;;12.60;4.40;;;6.70;99.90;;;;;;4119055;28;20210;-93
2021/03/18 06:56:31;;;;;;;11.33;4.03;;;6.80;99.90;;;;;;4118203;28;20533;-92
2021/03/18 06:58:31;;;;;;;8.93;4.03;;;6.90;99.90;;;;;;4089116;23;20238;-92
2021/03/18 07:00:35;;;;;;;15.67;4.03;;;6.80;99.90;;;;;;4088557;29;20211;-92
2021/03/18 07:02:41;;;;;;;12.67;4.07;;;6.80;99.90;;;;;;4087632;29;20179;-92
2021/03/18 07:04:44;;;;;;;14.47;3.83;;;6.80;99.90;;;;;;4086365;29;20226;-92
2021/03/18 07:06:52;;;;;;;9.90;3.87;;;6.70;99.90;;;;;;4086358;29;20186;-92
2021/03/18 07:09:04;;;;;;;12.80;4.00;;;6.70;99.90;;;;;;4101869;29;20270;-92
2021/03/18 07:11:35;;;;;;;15.13;4.60;;;6.70;99.90;;;;;;4088476;29;20202;-92
2021/03/18 07:13:41;;;;;;;13.17;4.13;;;6.90;99.90;;;;;;4071001;29;20188;-92
2021/03/18 07:15:43;;;;;;;9.47;4.37;;;6.90;99.90;;;;;;4071090;29;20176;-91
2021/03/18 07:17:44;;;;;;;11.93;4.20;;;7.00;99.90;;;;;;4070642;29;20571;-93
2021/03/18 07:19:45;;;;;;;9.03;4.00;;;7.10;99.90;;;;;;4086301;29;20203;-92
2021/03/18 07:21:46;;;;;;;9.70;4.37;;;7.00;99.90;;;;;;4071965;29;20218;-92
2021/03/18 07:23:48;;;;;;;12.50;4.00;;;7.20;99.90;;;;;;4086930;29;20215;-92
2021/03/18 07:25:48;;;;;;;13.23;4.57;;;7.20;99.90;;;;;;4086208;29;20175;-93
2021/03/18 07:27:53;;;;;;;14.37;4.50;;;7.40;99.90;;;;;;4087028;29;20231;-92
2021/03/18 07:29:54;;;;;;;13.27;4.23;;;7.30;99.90;;;;;;4070931;29;20192;-92
2021/03/18 07:31:56;;;;;;;15.47;4.17;;;7.20;99.90;;;;;;4086805;29;20217;-92
2021/03/18 07:33:57;;;;;;;18.77;4.80;;;7.10;99.90;;;;;;4087980;29;20199;-91
2021/03/18 07:35:58;;;;;;;16.63;5.00;;;7.20;99.90;;;;;;4088103;29;20175;-92
2021/03/18 07:38:00;;;;;;;22.90;5.43;;;6.80;99.90;;;;;;4071916;29;20206;-92
2021/03/18 07:40:01;;;;;;;13.17;4.80;;;6.50;99.90;;;;;;4086367;29;20187;-92
2021/03/18 07:42:02;;;;;;;12.27;5.07;;;6.40;99.90;;;;;;4102154;29;20242;-92
2021/03/18 07:44:04;;;;;;;14.63;4.17;;;6.50;99.90;;;;;;4085649;29;20211;-92
2021/03/18 07:46:05;;;;;;;14.17;4.70;;;6.50;99.90;;;;;;4087981;29;20238;-91
2021/03/18 07:48:06;;;;;;;11.73;4.67;;;6.50;99.90;;;;;;4070356;29;20180;-92
2021/03/18 07:50:10;;;;;;;12.63;4.67;;;6.80;99.90;;;;;;4085810;29;20194;-91
2021/03/18 07:52:20;;;;;;;14.80;4.77;;;7.00;99.90;;;;;;4085369;29;20176;-92
2021/03/18 07:54:22;;;;;;;23.80;8.63;;;6.70;99.90;;;;;;4086962;29;20179;-92
2021/03/18 07:56:24;;;;;;;50.60;28.03;;;6.70;99.90;;;;;;4101637;29;20223;-91
2021/03/18 07:58:41;;;;;;;13.10;4.57;;;6.80;99.90;;;;;;4097661;28;20243;-92
2021/03/18 08:00:44;;;;;;;13.00;4.80;;;7.00;99.90;;;;;;4101212;28;20590;-93
2021/03/18 08:02:45;;;;;;;16.47;5.47;;;7.20;99.90;;;;;;4085440;29;20183;-91
2021/03/18 08:04:53;;;;;;;11.57;4.47;;;7.50;99.90;;;;;;4085048;29;20315;-91
2021/03/18 08:06:54;;;;;;;21.10;5.73;;;7.60;99.90;;;;;;4101578;29;20257;-92
2021/03/18 08:08:58;;;;;;;25.03;8.77;;;7.70;99.90;;;;;;4101157;29;20182;-92
2021/03/18 08:11:11;;;;;;;20.00;5.60;;;7.60;99.90;;;;;;4085332;29;20203;-92
2021/03/18 08:13:12;;;;;;;23.13;5.53;;;7.40;99.90;;;;;;4101777;29;20234;-92
2021/03/18 08:15:23;;;;;;;12.63;5.13;;;7.40;99.90;;;;;;4084994;29;20667;-92
2021/03/18 08:17:27;;;;;;;21.63;9.53;;;7.00;99.90;;;;;;4101001;29;20185;-92
2021/03/18 08:19:40;;;;;;;27.73;6.47;;;7.00;99.90;;;;;;4101030;28;20209;-92
2021/03/18 08:21:49;;;;;;;20.07;6.70;;;7.10;99.90;;;;;;4101510;28;20178;-91
2021/03/18 08:23:50;;;;;;;16.97;6.23;;;7.20;99.90;;;;;;4100949;28;20221;-91
2021/03/18 08:25:55;;;;;;;23.83;6.37;;;7.10;99.90;;;;;;4085319;29;20171;-92
2021/03/18 08:27:56;;;;;;;16.17;5.30;;;7.00;99.90;;;;;;4085248;29;20190;-91
2021/03/18 08:30:00;;;;;;;13.63;5.07;;;7.20;99.90;;;;;;4100763;29;20194;-92
2021/03/18 08:32:26;;;;;;;14.30;4.80;;;7.00;99.90;;;;;;4086087;29;20176;-91
2021/03/18 08:34:46;;;;;;;13.13;5.07;;;7.10;99.90;;;;;;4100743;29;20522;-91
2021/03/18 08:36:55;;;;;;;18.90;6.00;;;7.20;99.90;;;;;;4084728;29;20247;-91
2021/03/18 08:39:06;;;;;;;15.97;7.13;;;6.90;99.90;;;;;;4101242;29;20246;-92
2021/03/18 08:41:07;;;;;;;22.93;12.07;;;6.90;99.90;;;;;;4084796;29;20207;-92
2021/03/18 08:43:08;;;;;;;29.83;7.53;;;6.80;99.90;;;;;;4084792;29;20180;-92
2021/03/18 08:45:18;;;;;;;30.60;14.80;;;6.90;99.90;;;;;;4084999;29;20243;-91
2021/03/18 08:47:19;;;;;;;26.13;7.97;;;6.90;99.90;;;;;;4100622;29;20171;-91
2021/03/18 08:49:38;;;;;;;22.03;7.57;;;7.10;99.90;;;;;;4100757;29;20226;-91
2021/03/18 08:51:40;;;;;;;15.77;7.13;;;7.10;99.90;;;;;;4101115;29;20173;-91
2021/03/18 08:53:44;;;;;;;21.93;8.40;;;7.10;99.90;;;;;;4117839;28;20174;-92
2021/03/18 08:55:45;;;;;;;20.13;7.23;;;7.20;99.90;;;;;;4084781;29;20214;-92
2021/03/18 08:57:46;;;;;;;26.10;8.77;;;7.30;99.90;;;;;;4100947;29;20227;-92
2021/03/18 08:59:52;;;;;;;22.87;7.90;;;7.40;99.90;;;;;;4100538;29;20226;-92
2021/03/18 09:02:45;;;;;;;27.93;8.00;;;7.40;99.90;;;;;;4084158;29;20662;-92
2021/03/18 09:04:48;;;;;;;22.67;8.60;;;7.20;99.90;;;;;;4057638;29;20238;-92
2021/03/18 09:06:49;;;;;;;33.23;9.03;;;7.40;99.90;;;;;;4084588;29;20179;-91
2021/03/18 09:08:50;;;;;;;33.53;9.77;;;7.60;99.90;;;;;;4102015;29;20171;-91
2021/03/18 09:10:51;;;;;;;26.03;9.80;;;7.80;99.90;;;;;;4100984;29;20189;-91
2021/03/18 09:13:03;;;;;;;36.30;8.93;;;7.50;99.90;;;;;;4100523;29;20183;-92
2021/03/18 09:15:11;;;;;;;34.27;8.87;;;7.50;99.90;;;;;;4101107;29;20200;-92
2021/03/18 09:17:14;;;;;;;27.97;8.00;;;7.10;99.90;;;;;;4100455;29;20626;-91
2021/03/18 09:19:15;;;;;;;28.07;8.60;;;6.90;99.90;;;;;;4101060;28;20174;-91
2021/03/18 09:21:16;;;;;;;29.13;8.80;;;7.10;99.90;;;;;;4084281;29;20179;-93
2021/03/18 09:23:21;;;;;;;26.30;7.07;;;7.10;99.90;;;;;;4100235;29;20207;-92
2021/03/18 09:25:27;;;;;;;27.47;7.60;;;7.10;99.90;;;;;;4085432;29;20183;-92
2021/03/18 09:27:39;;;;;;;34.93;7.80;;;7.20;99.90;;;;;;4084428;29;20699;-92
2021/03/18 09:29:43;;;;;;;26.27;7.73;;;7.40;99.90;;;;;;4100129;29;20602;-91
2021/03/18 09:31:43;;;;;;;32.57;7.40;;;7.40;99.90;;;;;;4100299;29;20273;-91
2021/03/18 09:33:44;;;;;;;27.10;7.80;;;7.30;99.90;;;;;;4100279;29;20234;-91
2021/03/18 09:35:46;;;;;;;25.50;7.07;;;7.50;99.90;;;;;;4100031;29;20266;-92
2021/03/18 09:37:48;;;;;;;29.17;7.90;;;7.60;99.90;;;;;;4100197;29;20175;-92
2021/03/18 09:39:49;;;;;;;33.10;7.07;;;7.70;99.90;;;;;;4101533;29;20840;-92
2021/03/18 09:42:09;;;;;;;25.33;6.57;;;7.80;99.90;;;;;;4100415;29;20256;-91
2021/03/18 09:44:14;;;;;;;23.73;6.30;;;7.80;99.90;;;;;;4084231;29;20219;-92
2021/03/18 09:46:14;;;;;;;28.23;7.37;;;7.80;99.90;;;;;;4100216;29;20651;-91
2021/03/18 09:48:33;;;;;;;24.60;6.57;;;7.90;99.90;;;;;;4100132;29;20175;-92
2021/03/18 09:50:35;;;;;;;25.20;10.63;;;8.30;99.90;;;;;;4100131;29;20191;-92
2021/03/18 09:52:35;;;;;;;27.60;8.00;;;8.20;99.90;;;;;;4084290;29;20632;-92
2021/03/18 09:54:37;;;;;;;29.37;7.23;;;8.20;99.90;;;;;;4100054;29;20209;-91
2021/03/18 09:56:47;;;;;;;34.37;6.40;;;8.30;99.90;;;;;;4084286;29;20187;-91
2021/03/18 09:58:48;;;;;;;25.97;6.23;;;8.60;99.90;;;;;;4087720;29;20263;-92
2021/03/18 10:00:49;;;;;;;35.40;12.07;;;8.80;99.90;;;;;;4084695;29;20207;-92
2021/03/18 10:02:49;;;;;;;33.10;14.50;;;9.00;99.90;;;;;;4069384;29;20703;-92
2021/03/18 10:04:50;;;;;;;26.57;6.50;;;9.10;99.90;;;;;;4068336;29;20212;-92
2021/03/18 10:06:53;;;;;;;35.00;6.40;;;9.10;99.90;;;;;;4086243;29;20184;-91
2021/03/18 10:09:13;;;;;;;30.00;6.37;;;9.40;99.90;;;;;;4085456;29;20730;-90
2021/03/18 10:11:14;;;;;;;29.23;5.60;;;9.70;99.90;;;;;;4084193;29;20200;-90
2021/03/18 10:13:15;;;;;;;64.57;30.27;;;9.60;99.90;;;;;;4069611;29;20592;-92
2021/03/18 10:15:17;;;;;;;23.93;6.67;;;9.30;99.90;;;;;;4087154;29;20212;-90
2021/03/18 10:17:39;;;;;;;26.13;6.13;;;8.80;99.90;;;;;;4087078;29;20219;-91
2021/03/18 10:19:59;;;;;;;21.07;5.43;;;9.00;99.90;;;;;;4103981;29;20198;-91
2021/03/18 10:22:08;;;;;;;36.83;6.80;;;8.70;99.90;;;;;;4089948;29;20308;-92
2021/03/18 10:24:11;;;;;;;33.37;7.60;;;8.60;99.90;;;;;;4090827;29;20222;-90
2021/03/18 10:26:21;;;;;;;24.83;6.90;;;8.60;99.90;;;;;;4087604;29;20195;-89
2021/03/18 10:28:28;;;;;;;25.63;6.77;;;7.80;99.90;;;;;;4087169;29;20662;-90
2021/03/18 10:30:29;;;;;;;28.20;6.63;;;8.20;99.90;;;;;;4087004;29;20210;-90
2021/03/18 10:32:30;;;;;;;22.23;7.30;;;8.20;99.90;;;;;;4075425;29;20243;-90
2021/03/18 10:34:31;;;;;;;26.90;7.57;;;8.30;99.90;;;;;;4089390;29;20178;-92
2021/03/18 10:36:42;;;;;;;30.20;7.43;;;8.20;99.90;;;;;;4073998;29;20207;-89
2021/03/18 10:38:45;;;;;;;33.83;8.40;;;8.30;99.90;;;;;;4086664;29;20164;-91
2021/03/18 10:40:48;;;;;;;21.57;7.60;;;8.40;99.90;;;;;;4102965;29;20202;-90
2021/03/18 10:42:50;;;;;;;32.30;8.80;;;8.10;99.90;;;;;;4086607;29;20183;-91
2021/03/18 10:44:51;;;;;;;28.03;8.37;;;8.20;99.90;;;;;;4087711;29;20423;-90
2021/03/18 10:46:52;;;;;;;23.43;7.80;;;8.40;99.90;;;;;;4070914;29;20312;-91
2021/03/18 10:48:52;;;;;;;26.63;8.87;;;8.30;99.90;;;;;;4102426;29;20179;-90